< < Back
Terminal Aerodrome Forecast


Current Version              Previous Versions:   1  2  3  4  5  6  7  8  9  

Terminal Aerodrome Forecast

900
FTUS42 KJAX 042322
TAFSSI
TAF
KSSI 042322Z 0500/0524 19010KT P6SM FEW050 FEW250
     FM050700 20004KT 3SM BR BKN008
     FM051400 21007KT P6SM SCT015 SCT250
     FM051600 20012G18KT P6SM SCT040 SCT250=

Latest METAR

110
SAUS70 KWBC 050400 RRK
MTRSSI
METAR KSSI 050353Z AUTO 17004KT 10SM CLR 15/14 A3006 RMK AO2 SLP178
T01500139


USA.gov is the U.S. government's official web portal to all federal, state and local government web resources and services.